Flight Track Log - Related Links

Times and Time Zones

All times are in EDT time to prevent confusion due to time zone crossing. See the TRS409 flight status page for this flight to view local times or setup timezone preferences in your user account.

Time Position Orientation Groundspeed Altitude Reporting Facility
EDT Latitude Longitude Course Direction KTS MPH feet Rate Location/Type
Sat 07:37:15 PM 28.4000 -81.3000 196° South 171 197 800  Level Orlando TRACON
Sat 07:38:16 PM 28.3500 -81.3167 196° South 239 275 2,100 1,512 Climbing Orlando TRACON
Sat 07:39:22 PM 28.3333 -81.4000 257° West 287 330 4,000 2,208 Climbing Orlando TRACON
Sat 07:40:21 PM 28.3333 -81.4833 270° West 285 328 6,700 2,370 Climbing Orlando TRACON
Sat 07:41:21 PM 28.3333 -81.5833 270° West 285 328 8,700 1,804 Climbing Orlando TRACON
Sat 07:43:04 PM 28.3264 -81.7467 267° West 316 364 11,600 1,472 Climbing Jacksonville Center
Sat 07:44:04 PM 28.3272 -81.8572 271° West 327 376 12,700 1,400 Climbing Jacksonville Center
Sat 07:45:04 PM 28.3469 -81.9703 281° West 357 411 14,400 1,700 Climbing Jacksonville Center
Sat 07:46:04 PM 28.3853 -82.0833 291° West 373 429 16,100 1,600 Climbing Jacksonville Center
Sat 07:47:04 PM 28.4256 -82.2008 291° West 384 442 17,600 1,550 Climbing Jacksonville Center
Sat 07:48:04 PM 28.4783 -82.3117 298° West 395 455 19,200 1,750 Climbing Jacksonville Center
Sat 07:49:04 PM 28.5642 -82.4008 318° Northwest 406 467 21,100 1,700 Climbing Jacksonville Center
Sat 07:50:04 PM 28.6689 -82.4689 330° Northwest 411 473 22,600 1,550 Climbing Jacksonville Center
Sat 07:51:04 PM 28.7714 -82.5325 331° Northwest 416 479 24,200 1,450 Climbing Jacksonville Center
Sat 07:52:04 PM 28.8800 -82.5986 332° Northwest 428 493 25,500 900 Climbing Jacksonville Center
Sat 07:53:04 PM 28.9678 -82.6956 316° Northwest 428 493 26,000 750 Climbing Jacksonville Center
Sat 07:54:04 PM 29.0744 -82.7739 327° Northwest 438 504 27,000 1,000 Climbing Jacksonville Center
Sat 07:55:04 PM 29.1892 -82.8356 335° Northwest 449 517 28,000 1,400 Climbing Jacksonville Center
Sat 07:56:04 PM 29.3061 -82.8950 336° Northwest 455 524 29,800 1,450 Climbing Jacksonville Center
Sat 07:57:04 PM 29.4189 -82.9544 335° Northwest 455 524 30,900 1,050 Climbing Jacksonville Center
Sat 07:58:04 PM 29.5358 -83.0192 334° Northwest 450 518 31,900 550 Climbing Jacksonville Center
Sat 07:59:04 PM 29.6483 -83.0767 336° Northwest 450 518 32,000 50 Climbing Jacksonville Center
Sat 08:00:04 PM 29.7672 -83.1294 339° North 450 518 32,000 -50 Level Jacksonville Center
Sat 08:01:04 PM 29.8819 -83.1825 338° Northwest 441 507 31,900  Descending Jacksonville Center
Sat 08:02:04 PM 30.0008 -83.2356 339° North 441 507 32,000 50 Climbing Jacksonville Center
Sat 08:03:04 PM 30.1050 -83.2864 337° Northwest 446 513 32,000  Level Jacksonville Center
Sat 08:04:04 PM 30.2239 -83.3397 339° North 451 519 32,000 -50 Level Jacksonville Center
Sat 08:05:04 PM 30.3386 -83.3933 338° Northwest 451 519 31,900  Descending Jacksonville Center
Sat 08:06:04 PM 30.4553 -83.4469 338° Northwest 451 519 32,000 50 Climbing Jacksonville Center
Sat 08:07:04 PM 30.5719 -83.5031 338° Northwest 451 519 32,000  Level Jacksonville Center
Sat 08:08:04 PM 30.6867 -83.5569 338° Northwest 451 519 32,000  Level Jacksonville Center
Sat 08:09:04 PM 30.8031 -83.6108 338° Northwest 451 519 32,000  Level Jacksonville Center
Sat 08:10:04 PM 30.9178 -83.6700 336° Northwest 451 519 32,000  Level Jacksonville Center
Sat 08:11:53 PM 31.1244 -83.7697 338° Northwest 452 520 32,000  Level Atlanta Center
Sat 08:12:53 PM 31.2414 -83.8253 338° Northwest 452 520 32,000  Level Atlanta Center
Sat 08:13:53 PM 31.3583 -83.8808 338° Northwest 452 520 32,000  Level Atlanta Center
Sat 08:14:53 PM 31.4711 -83.9392 336° Northwest 452 520 32,000  Level Atlanta Center
Sat 08:15:53 PM 31.5942 -83.9778 345° North 452 520 32,000  Level Atlanta Center
Sat 08:16:53 PM 31.7194 -84.0047 350° North 452 520 32,000  Level Atlanta Center
Sat 08:17:53 PM 31.8594 -84.0364 349° North 452 520 32,000  Level Atlanta Center
Sat 08:18:53 PM 31.9825 -84.0608 350° North 452 520 32,000  Level Atlanta Center
Sat 08:19:53 PM 32.1078 -84.0903 349° North 452 520 32,000  Level Atlanta Center
Sat 08:20:53 PM 32.2328 -84.1200 349° North 452 520 32,000  Level Atlanta Center
Sat 08:21:53 PM 32.3539 -84.1469 349° North 446 513 32,000  Level Atlanta Center
Sat 08:22:53 PM 32.4792 -84.1742 350° North 446 513 32,000  Level Atlanta Center
Sat 08:23:53 PM 32.6022 -84.2042 348° North 446 513 32,000  Level Atlanta Center
Sat 08:24:53 PM 32.7275 -84.2289 351° North 446 513 32,000  Level Atlanta Center
Sat 08:25:53 PM 32.8506 -84.2589 348° North 446 513 32,000  Level Atlanta Center
Sat 08:26:53 PM 32.9736 -84.2864 349° North 446 513 32,000  Level Atlanta Center
Sat 08:27:53 PM 33.0947 -84.3142 349° North 447 514 32,000  Level Atlanta Center
Sat 08:28:53 PM 33.2178 -84.3417 349° North 447 514 32,000  Level Atlanta Center
Sat 08:29:53 PM 33.3408 -84.3719 348° North 447 514 32,000  Level Atlanta Center
Sat 08:30:53 PM 33.4639 -84.3975 350° North 447 514 32,000  Level Atlanta Center
Sat 08:31:53 PM 33.5892 -84.4278 349° North 453 521 32,000  Level Atlanta Center
Sat 08:32:53 PM 33.7039 -84.4583 348° North 440 506 32,000  Level Atlanta Center
Sat 08:33:53 PM 33.8103 -84.4839 349° North 440 506 32,000  Level Atlanta Center
Sat 08:34:53 PM 33.9519 -84.5172 349° North 446 513 32,000  Level Atlanta Center
Sat 08:35:53 PM 34.0792 -84.5478 349° North 451 519 32,000  Level Atlanta Center
Sat 08:36:53 PM 34.2064 -84.5764 349° North 457 526 32,000  Level Atlanta Center
Sat 08:37:53 PM 34.3294 -84.6072 348° North 452 520 32,000  Level Atlanta Center
Sat 08:38:53 PM 34.4503 -84.6383 348° North 447 514 32,000  Level Atlanta Center
Sat 08:39:53 PM 34.5733 -84.6669 349° North 447 514 32,000  Level Atlanta Center
Sat 08:40:53 PM 34.6775 -84.6931 348° North 447 514 32,000  Level Atlanta Center
Sat 08:41:53 PM 34.7983 -84.7242 348° North 441 507 32,000  Level Atlanta Center
Sat 08:42:53 PM 34.9192 -84.7531 349° North 441 507 32,000  Level Atlanta Center
Sat 08:43:53 PM 35.0378 -84.7972 343° North 436 502 32,000  Level Atlanta Center
Sat 08:44:53 PM 35.1564 -84.8442 342° North 436 502 32,000  Level Atlanta Center
Sat 08:45:53 PM 35.2731 -84.8883 343° North 436 502 32,000  Level Atlanta Center
Sat 08:46:53 PM 35.3936 -84.9356 342° North 436 502 32,000  Level Atlanta Center
Sat 08:47:53 PM 35.5122 -84.9803 343° North 441 507 32,000  Level Atlanta Center
Sat 08:48:53 PM 35.6308 -85.0275 342° North 441 507 32,000  Level Atlanta Center
Sat 08:49:53 PM 35.7514 -85.0750 342° North 441 507 32,000  Level Atlanta Center
Sat 08:51:34 PM 35.9544 -85.1500 343° North 455 524 32,000  Level Indianapolis Center
Sat 08:52:35 PM 36.0747 -85.1978 342° North 455 524 32,000  Level Indianapolis Center
Sat 08:53:35 PM 36.1953 -85.2439 343° North 452 520 32,000 50 Level Indianapolis Center
Sat 08:54:36 PM 36.3128 -85.2908 342° North 445 512 32,100 590 Climbing Indianapolis Center
Sat 08:55:37 PM 36.4314 -85.3378 342° North 445 512 33,200 934 Climbing Indianapolis Center
Sat 08:56:38 PM 36.5483 -85.3836 343° North 442 509 34,000 397 Climbing Indianapolis Center
Sat 08:57:38 PM 36.6647 -85.4294 342° North 438 504 34,000  Level Indianapolis Center
Sat 08:58:39 PM 36.8033 -85.4853 342° North 437 503 34,000  Level Indianapolis Center
Sat 08:59:40 PM 36.9064 -85.5269 342° North 445 512 34,000  Level Indianapolis Center
Sat 09:00:41 PM 37.0236 -85.5731 343° North 438 504 34,000  Level Indianapolis Center
Sat 09:01:41 PM 37.1392 -85.6197 342° North 434 499 34,000  Level Indianapolis Center
Sat 09:02:42 PM 37.2561 -85.6672 342° North 437 503 34,000  Level Indianapolis Center
Sat 09:03:43 PM 37.3800 -85.7167 342° North 434 499 34,000  Level Indianapolis Center
Sat 09:04:43 PM 37.4953 -85.7619 343° North 432 497 34,000  Level Indianapolis Center
Sat 09:05:44 PM 37.6111 -85.8108 342° North 438 504 34,000  Level Indianapolis Center
Sat 09:06:45 PM 37.7286 -85.8603 342° North 442 509 34,000  Level Indianapolis Center
Sat 09:07:46 PM 37.8469 -85.9089 342° North 445 512 34,000  Level Indianapolis Center
Sat 09:08:46 PM 37.9647 -85.9572 342° North 445 512 34,000  Level Indianapolis Center
Sat 09:09:47 PM 38.0825 -86.0056 342° North 445 512 34,000  Level Indianapolis Center
Sat 09:10:48 PM 38.2006 -86.0544 342° North 445 512 34,000  Level Indianapolis Center
Sat 09:11:49 PM 38.3192 -86.1042 342° North 449 517 34,000  Level Indianapolis Center
Sat 09:12:49 PM 38.4383 -86.1547 342° North 451 519 34,000  Level Indianapolis Center
Sat 09:13:50 PM 38.5586 -86.2047 342° North 453 521 34,000  Level Indianapolis Center
Sat 09:14:51 PM 38.6808 -86.2553 342° North 459 528 34,000  Level Indianapolis Center
Sat 09:15:52 PM 38.8039 -86.3078 342° North 464 534 34,000  Level Indianapolis Center
Sat 09:16:52 PM 38.9311 -86.3628 341° North 467 537 34,000  Level Indianapolis Center
Sat 09:17:53 PM 39.0558 -86.4147 342° North 468 539 34,000  Level Indianapolis Center
Sat 09:18:54 PM 39.2031 -86.4778 342° North 472 543 34,000  Level Indianapolis Center
Sat 09:19:55 PM 39.3078 -86.5233 341° North 472 543 34,000  Level Indianapolis Center
Sat 09:20:55 PM 39.4358 -86.5778 342° North 476 548 34,000  Level Indianapolis Center
Sat 09:21:56 PM 39.5658 -86.6339 342° North 483 556 34,000  Level Indianapolis Center
Sat 09:22:57 PM 39.6947 -86.6914 341° North 482 555 34,000  Level Indianapolis Center
Sat 09:23:58 PM 39.8242 -86.7467 342° North 480 552 34,000  Level Indianapolis Center
Sat 09:24:59 PM 39.9503 -86.8022 341° North 473 544 34,000  Level Indianapolis Center
Sat 09:25:59 PM 40.0761 -86.8569 342° North 472 543 34,000  Level Indianapolis Center
Sat 09:26:53 PM 40.2011 -86.9139 341° North 474 545 34,000  Level Chicago Center
Sat 09:27:54 PM 40.3258 -86.9681 342° North 469 540 34,000  Level Chicago Center
Sat 09:28:55 PM 40.4492 -87.0244 341° North 469 540 34,000  Level Chicago Center
Sat 09:29:56 PM 40.5733 -87.0794 341° North 468 539 34,000  Level Chicago Center
Sat 09:30:57 PM 40.6919 -87.1333 341° North 464 534 34,000  Level Chicago Center
Sat 09:31:58 PM 40.8128 -87.1903 340° North 466 536 34,000  Level Chicago Center
Sat 09:32:59 PM 40.9339 -87.2450 341° North 463 533 34,000  Level Chicago Center
Sat 09:34:00 PM 41.0567 -87.3017 341° North 468 539 34,000  Level Chicago Center
Sat 09:35:01 PM 41.1783 -87.3556 342° North 466 536 34,000  Level Chicago Center
Sat 09:36:02 PM 41.3214 -87.4239 340° North 463 533 34,000  Level Chicago Center
Sat 09:37:03 PM 41.4408 -87.4797 341° North 461 531 34,000  Level Chicago Center
Sat 09:38:04 PM 41.5597 -87.5353 341° North 460 529 34,000  Level Chicago Center
Sat 09:39:05 PM 41.6792 -87.5917 341° North 461 531 34,000  Level Chicago Center
Sat 09:40:05 PM 41.7972 -87.6478 340° North 459 528 34,000  Level Chicago Center
Sat 09:41:06 PM 41.9153 -87.7036 341° North 456 525 34,000  Level Chicago Center
Sat 09:42:07 PM 42.0325 -87.7592 341° North 453 521 34,000  Level Chicago Center
Sat 09:43:08 PM 42.1711 -87.8242 341° North 445 512 34,000  Level Chicago Center
Sat 09:44:09 PM 42.2844 -87.8892 337° Northwest 447 514 34,000  Level Chicago Center
Sat 09:45:10 PM 42.3781 -87.9939 320° Northwest 443 510 34,000  Level Chicago Center
Sat 09:46:11 PM 42.4750 -88.1014 321° Northwest 445 512 34,000  Level Chicago Center
Sat 09:47:12 PM 42.5714 -88.2083 321° Northwest 447 514 34,000  Level Chicago Center
Sat 09:48:12 PM 42.6664 -88.3175 320° Northwest 446 513 34,000  Level Chicago Center
Sat 09:49:13 PM 42.7622 -88.4264 320° Northwest 447 514 34,000  Level Chicago Center
Sat 09:50:14 PM 42.8575 -88.5344 320° Northwest 444 511 34,000  Level Chicago Center
Sat 09:51:15 PM 42.9522 -88.6436 320° Northwest 443 510 34,000  Level Chicago Center
Sat 09:52:16 PM 43.0481 -88.7525 320° Northwest 444 511 34,000  Level Chicago Center
Sat 09:53:16 PM 43.1433 -88.8625 320° Northwest 445 512 34,000  Level Chicago Center
Sat 09:54:17 PM 43.2400 -88.9731 320° Northwest 448 516 34,000  Level Chicago Center
Sat 09:55:18 PM 43.3353 -89.0833 320° Northwest 445 512 34,000  Level Chicago Center
Sat 09:56:19 PM 43.4306 -89.1953 320° Northwest 446 513 34,000  Level Chicago Center
Sat 09:57:19 PM 43.5253 -89.3067 320° Northwest 445 512 34,000  Level Chicago Center
Sat 09:58:20 PM 43.6197 -89.4178 320° Northwest 445 512 34,000  Level Chicago Center
Sat 09:58:44 PM 43.6664 -89.4731 319° Northwest 444 511 34,000  Level Minneapolis Center
Sat 09:59:45 PM 43.7586 -89.5833 319° Northwest 439 505 34,000  Level Minneapolis Center
Sat 10:00:46 PM 43.8511 -89.6928 320° Northwest 438 504 34,000  Level Minneapolis Center
Sat 10:01:46 PM 43.9428 -89.8014 320° Northwest 433 498 34,000  Level Minneapolis Center
Sat 10:02:47 PM 44.0328 -89.9122 318° Northwest 433 498 34,000  Level Minneapolis Center
Sat 10:03:48 PM 44.1139 -90.0317 313° West 426 490 34,000  Level Minneapolis Center
Sat 10:04:49 PM 44.1747 -90.1739 301° West 425 489 34,000  Level Minneapolis Center
Sat 10:05:50 PM 44.2347 -90.3164 300° West 427 491 34,000  Level Minneapolis Center
Sat 10:06:50 PM 44.2958 -90.4586 301° West 426 490 34,000  Level Minneapolis Center
Sat 10:07:51 PM 44.3550 -90.6011 300° West 424 488 34,000  Level Minneapolis Center
Sat 10:08:52 PM 44.4167 -90.7436 301° West 426 490 34,000  Level Minneapolis Center
Sat 10:09:53 PM 44.4758 -90.8856 300° West 425 489 34,000  Level Minneapolis Center
Sat 10:10:53 PM 44.5367 -91.0300 301° West 426 490 34,000 -347 Level Minneapolis Center
Sat 10:11:54 PM 44.5964 -91.1725 301° West 427 491 33,300 -1,820 Descending Minneapolis Center
Sat 10:12:55 PM 44.6550 -91.3147 300° West 424 488 30,300 -2,754 Descending Minneapolis Center
Sat 10:13:56 PM 44.7131 -91.4564 300° West 422 486 27,700 -2,557 Descending Minneapolis Center
Sat 10:14:57 PM 44.7697 -91.5956 300° West 417 480 25,100 -2,852 Descending Minneapolis Center
Sat 10:15:58 PM 44.8361 -91.7569 300° West 404 465 21,900 -2,628 Descending Minneapolis Center
Sat 10:16:58 PM 44.8769 -91.8594 299° West 388 447 19,800 -2,529 Descending Minneapolis Center
Sat 10:17:59 PM 44.9381 -92.0103 300° West 373 429 16,800 -2,705 Descending Minneapolis Center
Sat 10:19:00 PM 44.9869 -92.1319 300° West 360 414 14,300 -2,459 Descending Minneapolis Center
Sat 10:20:01 PM 45.0328 -92.2483 299° West 343 395 11,800 -1,574 Descending Minneapolis Center
Sat 10:21:02 PM 45.0347 -92.3775 271° West 343 395 11,100 -397 Descending Minneapolis Center
Sat 10:22:02 PM 45.0150 -92.5075 258° West 341 392 11,000 -50 Descending Minneapolis Center
Sat 10:23:03 PM 44.9947 -92.6358 257° West 337 388 11,000  Level Minneapolis Center
Sat 10:24:04 PM 44.9739 -92.7631 257° West 335 386 11,000 -246 Level Minneapolis Center
Sat 10:25:05 PM 44.9544 -92.8856 257° West 324 373 10,500 -984 Descending Minneapolis Center
Sat 10:26:06 PM 44.9367 -92.9911 257° West 282 325 9,000 -1,240 Descending Minneapolis Center
Sat 10:27:06 PM 44.9444 -93.1083 275° West 270 311 8,000 -1,289 Descending Minneapolis Center
Sat 10:28:07 PM 44.9864 -93.1958 304° West 272 313 6,400 -1,820 Descending Minneapolis Center
Sat 10:29:08 PM 45.0289 -93.2822 305° West 271 312 4,300 -1,279 Descending Minneapolis Center
Sat 10:30:09 PM 45.0244 -93.3569 265° West 208 239 3,800 -639 Descending Minneapolis Center
Sat 10:31:10 PM 44.9889 -93.4008 221° Southwest 171 197 3,000 -397 Descending Minneapolis Center
Sat 10:32:10 PM 44.9458 -93.3672 151° Southeast 174 200 3,000 -446 Level Minneapolis Center
Sat 10:33:11 PM 44.9219 -93.3133 122° Southeast 157 181 2,100 -738 Descending Minneapolis Center
Sat 10:34:12 PM 44.9031 -93.2697 121° Southeast 134 154 1,500 -590 Descending Minneapolis Center
Sat 10:36:00 PM 44.8820 -93.2218 231° Southwest  Level Estimated
Sat 10:43:00 PM 44.8820 -93.2218 231° Southwest  Level Estimated

Login

Don't have an account? Register now (free) for customized features, flight alerts, and more!